Time;durP1;ratioP1;P1;durP2;ratioP2;P2;SDS_P1;SDS_P2;PMS_P1;PMS_P2;Temp;Humidity;BMP_temperature;BMP_pressure;BME280_temperature;BME280_humidity;BME280_pressure;Samples;Min_cycle;Max_cycle;Signal;HPM_P1;HPM_P2
2023/08/29 00:01:23;;;;;;;8.77;5.03;;;13.60;99.90;;;;;;5102062;28;20032;-56
2023/08/29 00:03:51;;;;;;;7.38;5.00;;;13.50;99.90;;;;;;5099500;28;20040;-57
2023/08/29 00:06:16;;;;;;;8.18;5.13;;;13.50;99.90;;;;;;5102029;28;20074;-56
2023/08/29 00:08:42;;;;;;;9.18;4.80;;;13.20;99.90;;;;;;5100751;28;20036;-57
2023/08/29 00:11:08;;;;;;;9.57;5.43;;;13.10;99.90;;;;;;5102361;28;20048;-57
2023/08/29 00:13:33;;;;;;;8.80;5.03;;;13.00;99.90;;;;;;5101216;28;20036;-55
2023/08/29 00:15:59;;;;;;;7.93;4.60;;;12.90;99.90;;;;;;5101301;28;20078;-56
2023/08/29 00:18:25;;;;;;;8.63;5.13;;;12.90;99.90;;;;;;5101348;28;20055;-56
2023/08/29 00:20:51;;;;;;;10.30;4.70;;;12.90;99.90;;;;;;5100614;28;20048;-57
2023/08/29 00:23:17;;;;;;;11.35;4.95;;;12.90;99.90;;;;;;5101813;28;20040;-57
2023/08/29 00:25:43;;;;;;;10.23;5.32;;;13.00;99.90;;;;;;5100672;28;20108;-57
2023/08/29 00:28:10;;;;;;;13.73;6.57;;;13.10;99.90;;;;;;5100308;28;20048;-59
2023/08/29 00:30:38;;;;;;;8.77;4.68;;;13.20;99.90;;;;;;5100857;28;20056;-56
2023/08/29 00:33:04;;;;;;;7.70;4.57;;;13.20;99.90;;;;;;5100078;28;20048;-57
2023/08/29 00:35:30;;;;;;;8.10;4.70;;;13.30;99.90;;;;;;5101342;28;20051;-56
2023/08/29 00:37:56;;;;;;;10.07;5.10;;;13.40;99.90;;;;;;5099910;28;20048;-57
2023/08/29 00:40:21;;;;;;;8.18;4.43;;;13.30;99.90;;;;;;5101292;28;20044;-56
2023/08/29 00:42:47;;;;;;;8.65;4.95;;;13.30;99.90;;;;;;5099714;28;20075;-57
2023/08/29 00:45:13;;;;;;;11.13;4.80;;;13.30;99.90;;;;;;5101065;28;20043;-57
2023/08/29 00:47:40;;;;;;;8.60;4.28;;;13.30;99.90;;;;;;5100041;28;20054;-57
2023/08/29 00:50:09;;;;;;;8.70;4.85;;;13.30;99.90;;;;;;5100386;28;20173;-57
2023/08/29 00:52:35;;;;;;;7.63;4.43;;;13.30;99.90;;;;;;5100863;28;20095;-56
2023/08/29 00:55:02;;;;;;;8.88;4.93;;;13.40;99.90;;;;;;5103752;28;20047;-58
2023/08/29 00:57:28;;;;;;;7.25;4.10;;;13.30;99.90;;;;;;5121227;28;20078;-57
2023/08/29 00:59:54;;;;;;;7.82;4.15;;;13.20;99.90;;;;;;5120212;28;20911;-56
2023/08/29 01:02:19;;;;;;;7.38;4.28;;;13.30;99.90;;;;;;5121565;28;20055;-56
2023/08/29 01:04:45;;;;;;;9.82;4.80;;;13.20;99.90;;;;;;5120584;28;20495;-58
2023/08/29 01:07:12;;;;;;;7.90;4.75;;;13.10;99.90;;;;;;5119718;28;20058;-57
2023/08/29 01:09:38;;;;;;;7.03;4.60;;;13.00;99.90;;;;;;5120928;28;20050;-57
2023/08/29 01:12:17;;;;;;;8.48;3.97;;;13.00;99.90;;;;;;5120116;28;20481;-58
2023/08/29 01:14:51;;;;;;;8.57;4.05;;;13.00;99.90;;;;;;5120763;28;20084;-57
2023/08/29 01:17:29;;;;;;;7.68;4.28;;;13.10;99.90;;;;;;5118537;28;20044;-57
2023/08/29 01:19:56;;;;;;;7.50;4.40;;;13.10;99.90;;;;;;5120908;28;20062;-56
2023/08/29 01:22:33;;;;;;;7.55;4.50;;;13.10;99.90;;;;;;5120502;28;20036;-57
2023/08/29 01:25:26;;;;;;;8.13;4.30;;;13.00;99.90;;;;;;5119601;28;20097;-57
2023/08/29 01:27:53;;;;;;;6.90;4.05;;;13.10;99.90;;;;;;5112422;28;20059;-56
2023/08/29 01:30:20;;;;;;;7.03;4.13;;;13.10;99.90;;;;;;5119801;28;20044;-56
2023/08/29 01:32:47;;;;;;;8.48;4.85;;;13.10;99.90;;;;;;5120766;28;20069;-59
2023/08/29 01:35:14;;;;;;;8.38;4.63;;;13.00;99.90;;;;;;5120491;28;20044;-56
2023/08/29 01:37:40;;;;;;;7.97;4.10;;;12.90;99.90;;;;;;5119518;28;20054;-57
2023/08/29 01:40:06;;;;;;;9.38;4.82;;;13.00;99.90;;;;;;5120800;28;20122;-57
2023/08/29 01:42:32;;;;;;;7.20;4.18;;;13.00;99.90;;;;;;5119289;28;20071;-57
2023/08/29 01:44:58;;;;;;;7.32;4.07;;;13.00;99.90;;;;;;5120569;28;20051;-58
2023/08/29 01:47:23;;;;;;;6.90;4.03;;;13.10;99.90;;;;;;5119188;28;20063;-55
2023/08/29 01:49:51;;;;;;;7.40;3.95;;;13.00;99.90;;;;;;5119905;28;20130;-56
2023/08/29 01:52:16;;;;;;;6.80;3.70;;;13.10;99.90;;;;;;5119894;27;20032;-57
2023/08/29 01:54:42;;;;;;;7.10;3.83;;;12.90;99.90;;;;;;5118018;28;20103;-57
2023/08/29 01:57:10;;;;;;;7.72;3.70;;;13.00;99.90;;;;;;5099978;28;20099;-58
2023/08/29 01:59:37;;;;;;;6.95;3.75;;;12.90;99.90;;;;;;5098868;28;20054;-57
2023/08/29 02:02:03;;;;;;;6.90;3.75;;;12.90;99.90;;;;;;5100182;28;20144;-57
2023/08/29 02:04:29;;;;;;;9.13;4.10;;;12.90;99.90;;;;;;5098336;28;20083;-57
2023/08/29 02:06:55;;;;;;;7.97;4.07;;;12.90;99.90;;;;;;5098891;28;20425;-58
2023/08/29 02:09:20;;;;;;;9.07;4.13;;;12.90;99.90;;;;;;5099357;28;20036;-57
2023/08/29 02:11:46;;;;;;;7.95;3.75;;;12.90;99.90;;;;;;5099003;28;20040;-57
2023/08/29 02:14:12;;;;;;;7.38;3.63;;;12.90;99.90;;;;;;5099666;28;20044;-57
2023/08/29 02:16:38;;;;;;;6.75;3.60;;;12.90;99.90;;;;;;5098120;28;20052;-57
2023/08/29 02:19:04;;;;;;;7.28;3.22;;;12.90;99.90;;;;;;5099110;28;20044;-57
2023/08/29 02:21:30;;;;;;;9.07;4.13;;;12.90;99.90;;;;;;5098470;28;20064;-57
2023/08/29 02:23:58;;;;;;;6.10;3.30;;;12.90;99.90;;;;;;5099810;28;20085;-56
2023/08/29 02:26:23;;;;;;;7.63;3.50;;;12.90;99.90;;;;;;5099128;28;20036;-56
2023/08/29 02:28:53;;;;;;;7.95;3.40;;;12.90;99.90;;;;;;5098823;28;20044;-57
2023/08/29 02:31:20;;;;;;;6.35;3.38;;;12.90;99.90;;;;;;5099600;28;20505;-57
2023/08/29 02:33:46;;;;;;;6.05;3.03;;;12.90;99.90;;;;;;5098158;28;20061;-57
2023/08/29 02:36:12;;;;;;;7.85;3.08;;;12.80;99.90;;;;;;5099703;28;20055;-57
2023/08/29 02:38:38;;;;;;;6.72;3.50;;;12.70;99.90;;;;;;5098404;28;20410;-56
2023/08/29 02:41:05;;;;;;;6.68;3.22;;;12.80;99.90;;;;;;5099889;28;20075;-56
2023/08/29 02:43:31;;;;;;;6.20;3.53;;;12.80;99.90;;;;;;5098910;28;20051;-56
2023/08/29 02:45:58;;;;;;;6.43;3.30;;;12.80;99.90;;;;;;5098658;28;20048;-57
2023/08/29 02:48:24;;;;;;;5.70;3.20;;;12.80;99.90;;;;;;5098697;28;20047;-57
2023/08/29 02:50:49;;;;;;;6.40;3.10;;;12.80;99.90;;;;;;5097829;28;20050;-57
2023/08/29 02:53:17;;;;;;;6.55;3.05;;;12.80;99.90;;;;;;5099287;28;20044;-57
2023/08/29 02:55:43;;;;;;;5.93;3.38;;;12.70;99.90;;;;;;5107900;28;20062;-57
2023/08/29 02:58:09;;;;;;;7.43;3.05;;;12.60;99.90;;;;;;5124025;28;20061;-57
2023/08/29 03:00:35;;;;;;;7.63;3.47;;;12.60;99.90;;;;;;5122808;28;20099;-55
2023/08/29 03:03:01;;;;;;;5.53;3.03;;;12.60;99.90;;;;;;5122973;28;20047;-56
2023/08/29 03:05:27;;;;;;;7.80;3.70;;;12.60;99.90;;;;;;5123343;28;20135;-56
2023/08/29 03:07:54;;;;;;;9.35;4.90;;;12.70;99.90;;;;;;5122198;28;20039;-56
2023/08/29 03:10:20;;;;;;;6.72;3.15;;;12.60;99.90;;;;;;5123290;28;20490;-57
2023/08/29 03:12:46;;;;;;;6.45;3.30;;;12.60;99.90;;;;;;5122189;28;20132;-57
2023/08/29 03:15:12;;;;;;;6.20;3.15;;;12.60;99.90;;;;;;5123591;28;20069;-57
2023/08/29 03:17:37;;;;;;;6.25;3.08;;;12.60;99.90;;;;;;5122386;28;20086;-56
2023/08/29 03:20:05;;;;;;;6.57;3.08;;;12.50;99.90;;;;;;5103993;28;20439;-55
2023/08/29 03:22:31;;;;;;;5.85;3.10;;;12.60;99.90;;;;;;5102771;28;20047;-57
2023/08/29 03:24:56;;;;;;;5.72;3.10;;;12.60;99.90;;;;;;5101343;28;20052;-57
2023/08/29 03:27:22;;;;;;;6.13;3.65;;;12.60;99.90;;;;;;5102542;28;20104;-57
2023/08/29 03:29:51;;;;;;;6.05;2.78;;;12.50;99.90;;;;;;5101423;28;20039;-57
2023/08/29 03:32:17;;;;;;;6.35;3.20;;;12.60;99.90;;;;;;5101558;28;20059;-56
2023/08/29 03:34:43;;;;;;;6.38;2.95;;;12.50;99.90;;;;;;5101606;28;20044;-56
2023/08/29 03:37:08;;;;;;;6.70;3.25;;;12.50;99.90;;;;;;5102324;28;20105;-57
2023/08/29 03:39:34;;;;;;;7.93;3.47;;;12.40;99.90;;;;;;5102192;28;20036;-57
2023/08/29 03:41:59;;;;;;;6.80;3.15;;;12.40;99.90;;;;;;5101134;28;20078;-56
2023/08/29 03:44:25;;;;;;;10.35;3.50;;;12.50;99.90;;;;;;5102327;28;20071;-58
2023/08/29 03:46:51;;;;;;;8.50;3.47;;;12.30;99.90;;;;;;5101105;28;20048;-57
2023/08/29 03:49:16;;;;;;;7.72;3.53;;;12.30;99.90;;;;;;5083842;28;20411;-57
2023/08/29 03:51:42;;;;;;;6.72;3.10;;;12.30;99.90;;;;;;5101389;28;20512;-57
2023/08/29 03:54:08;;;;;;;6.90;3.50;;;12.30;99.90;;;;;;5101003;28;20047;-58
2023/08/29 03:56:34;;;;;;;6.88;2.95;;;12.30;99.90;;;;;;5100345;28;20375;-57
2023/08/29 03:59:01;;;;;;;7.78;3.60;;;12.30;99.90;;;;;;5101173;28;20044;-57
2023/08/29 04:01:29;;;;;;;7.30;3.50;;;12.30;99.90;;;;;;5101801;28;20056;-57
2023/08/29 04:03:55;;;;;;;6.78;3.22;;;12.30;99.90;;;;;;5100868;28;20044;-57
2023/08/29 04:06:20;;;;;;;6.32;3.00;;;12.20;99.90;;;;;;5102051;28;20443;-57
2023/08/29 04:08:46;;;;;;;6.35;2.90;;;12.20;99.90;;;;;;5099794;28;20042;-56
2023/08/29 04:11:12;;;;;;;6.25;3.20;;;12.20;99.90;;;;;;5101911;28;20052;-57
2023/08/29 04:13:38;;;;;;;5.57;2.80;;;12.10;99.90;;;;;;5101331;28;20130;-56
2023/08/29 04:16:04;;;;;;;6.38;3.10;;;12.30;99.90;;;;;;5100727;28;20048;-57
2023/08/29 04:18:32;;;;;;;5.65;2.45;;;12.20;99.90;;;;;;5101554;28;20056;-56
2023/08/29 04:20:58;;;;;;;5.90;3.00;;;12.30;99.90;;;;;;5100249;28;20058;-57
2023/08/29 04:23:24;;;;;;;5.97;3.20;;;12.20;99.90;;;;;;5101771;28;20055;-56
2023/08/29 04:25:50;;;;;;;6.65;2.97;;;12.20;99.90;;;;;;5099105;28;20082;-57
2023/08/29 04:28:20;;;;;;;5.85;2.63;;;12.30;99.90;;;;;;5101705;28;20863;-56
2023/08/29 04:30:46;;;;;;;5.90;2.78;;;12.10;99.90;;;;;;5101075;28;20065;-57
2023/08/29 04:33:11;;;;;;;5.05;2.30;;;12.10;99.90;;;;;;5100463;28;20137;-57
2023/08/29 04:35:37;;;;;;;6.80;2.60;;;12.10;99.90;;;;;;5101492;28;20039;-57
2023/08/29 04:38:03;;;;;;;6.70;2.67;;;12.10;99.90;;;;;;5100239;28;20086;-57
2023/08/29 04:40:29;;;;;;;4.95;2.53;;;12.20;99.90;;;;;;5101333;28;20487;-57
2023/08/29 04:42:55;;;;;;;5.95;2.60;;;12.20;99.90;;;;;;5100217;28;20052;-57
2023/08/29 04:45:20;;;;;;;8.88;3.50;;;12.20;99.90;;;;;;5101337;28;20036;-57
2023/08/29 04:47:46;;;;;;;6.53;3.30;;;12.20;99.90;;;;;;5099473;28;20032;-56
2023/08/29 04:50:14;;;;;;;8.27;3.80;;;12.10;99.90;;;;;;5100462;28;20044;-57
2023/08/29 04:52:39;;;;;;;7.22;3.15;;;12.20;99.90;;;;;;5101131;28;20198;-58
2023/08/29 04:55:05;;;;;;;7.55;3.45;;;12.10;99.90;;;;;;5104407;28;20086;-57
2023/08/29 04:57:33;;;;;;;7.32;3.25;;;12.20;99.90;;;;;;5121173;28;20709;-57
2023/08/29 05:00:00;;;;;;;7.50;3.25;;;12.20;99.90;;;;;;5120293;28;20044;-56
2023/08/29 05:02:26;;;;;;;7.75;3.75;;;12.20;99.90;;;;;;5111886;28;20052;-56
2023/08/29 05:04:52;;;;;;;6.80;2.97;;;12.20;99.90;;;;;;5100107;28;20046;-56
2023/08/29 05:07:19;;;;;;;6.32;3.40;;;12.20;99.90;;;;;;5100309;28;20040;-57
2023/08/29 05:09:44;;;;;;;6.28;2.97;;;12.30;99.90;;;;;;5100725;28;20467;-55
2023/08/29 05:12:10;;;;;;;5.95;3.20;;;12.20;99.90;;;;;;5099131;28;20044;-56
2023/08/29 05:14:39;;;;;;;6.30;3.33;;;12.20;99.90;;;;;;5100673;28;20048;-56
2023/08/29 05:17:05;;;;;;;7.35;3.13;;;12.30;99.90;;;;;;5098703;28;20051;-56
2023/08/29 05:19:31;;;;;;;8.98;3.42;;;12.40;99.90;;;;;;5100095;28;20040;-56
2023/08/29 05:21:57;;;;;;;5.75;2.80;;;12.40;99.90;;;;;;5099705;28;20052;-56
2023/08/29 05:24:22;;;;;;;5.88;2.95;;;12.40;99.90;;;;;;5099693;28;20101;-56
2023/08/29 05:26:49;;;;;;;7.45;3.40;;;12.40;99.90;;;;;;5099667;28;20093;-57
2023/08/29 05:29:14;;;;;;;6.70;3.35;;;12.40;99.90;;;;;;5099222;28;20040;-57
2023/08/29 05:31:40;;;;;;;6.25;3.22;;;12.50;99.90;;;;;;5098822;28;20116;-57
2023/08/29 05:34:06;;;;;;;6.47;3.13;;;12.50;99.90;;;;;;5097675;28;20123;-57
2023/08/29 05:36:31;;;;;;;5.68;3.08;;;12.50;99.90;;;;;;5100496;28;20040;-57
2023/08/29 05:38:57;;;;;;;8.70;3.88;;;12.40;99.90;;;;;;5099483;28;20065;-57
2023/08/29 05:41:23;;;;;;;7.35;3.60;;;12.70;99.90;;;;;;5099749;28;20079;-57
2023/08/29 05:43:48;;;;;;;6.95;3.58;;;12.70;99.90;;;;;;5099996;28;20036;-57
2023/08/29 05:46:14;;;;;;;7.70;3.15;;;12.80;99.90;;;;;;5097623;28;20036;-57
2023/08/29 05:48:40;;;;;;;7.20;3.70;;;12.80;99.90;;;;;;5098377;28;20040;-57
2023/08/29 05:51:05;;;;;;;6.28;3.10;;;12.80;99.90;;;;;;5098777;28;20052;-57
2023/08/29 05:53:31;;;;;;;6.80;3.17;;;13.00;99.90;;;;;;5100242;28;20036;-57
2023/08/29 05:55:57;;;;;;;6.63;3.15;;;12.90;99.90;;;;;;5110778;28;20039;-57
2023/08/29 05:58:22;;;;;;;6.85;3.25;;;12.70;99.90;;;;;;5120089;28;20047;-57
2023/08/29 06:00:48;;;;;;;5.70;2.80;;;12.70;99.90;;;;;;5120195;28;20421;-57
2023/08/29 06:03:14;;;;;;;8.70;3.35;;;12.90;99.90;;;;;;5119027;28;20049;-55
2023/08/29 06:05:43;;;;;;;7.25;3.55;;;13.00;99.90;;;;;;5120020;28;20047;-58
2023/08/29 06:08:09;;;;;;;6.43;3.20;;;13.00;99.90;;;;;;5118734;28;20095;-58
2023/08/29 06:10:35;;;;;;;6.50;3.00;;;13.10;99.90;;;;;;5120273;28;20039;-58
2023/08/29 06:13:01;;;;;;;6.32;3.20;;;13.20;99.90;;;;;;5115523;28;20597;-58
2023/08/29 06:15:27;;;;;;;6.95;3.05;;;13.30;99.90;;;;;;5116229;28;20611;-58
2023/08/29 06:17:53;;;;;;;5.60;2.95;;;13.30;99.90;;;;;;5115138;28;20069;-58
2023/08/29 06:20:19;;;;;;;6.85;2.65;;;13.20;99.90;;;;;;5113526;28;20052;-58
2023/08/29 06:22:45;;;;;;;5.88;3.03;;;13.20;99.90;;;;;;5115692;28;20058;-58
2023/08/29 06:25:10;;;;;;;8.30;3.45;;;13.30;99.90;;;;;;5114087;28;20069;-58
2023/08/29 06:27:37;;;;;;;6.95;2.83;;;13.30;99.90;;;;;;5115930;28;20119;-58
2023/08/29 06:30:12;;;;;;;7.00;3.38;;;13.40;99.90;;;;;;5114603;28;20077;-58
2023/08/29 06:32:38;;;;;;;7.40;3.08;;;13.60;99.90;;;;;;5115094;28;20054;-58
2023/08/29 06:35:07;;;;;;;6.65;3.65;;;13.70;99.90;;;;;;5113863;28;20413;-58
2023/08/29 06:37:33;;;;;;;5.93;2.80;;;13.70;99.90;;;;;;5114014;28;20045;-58
2023/08/29 06:39:59;;;;;;;7.22;3.00;;;13.90;99.90;;;;;;5115500;28;20131;-57
2023/08/29 06:42:25;;;;;;;7.15;3.30;;;14.00;99.90;;;;;;5114459;28;20154;-58
2023/08/29 06:44:51;;;;;;;8.35;3.10;;;14.20;99.90;;;;;;5115463;28;20152;-58
2023/08/29 06:47:17;;;;;;;8.55;3.50;;;14.30;99.90;;;;;;5113071;28;20047;-57
2023/08/29 06:49:43;;;;;;;6.10;3.25;;;14.50;99.90;;;;;;5115076;28;20510;-57
2023/08/29 06:52:09;;;;;;;6.47;3.50;;;14.60;99.90;;;;;;5114997;28;20074;-57
2023/08/29 06:54:35;;;;;;;7.18;3.35;;;14.60;99.90;;;;;;5114018;28;20119;-58
2023/08/29 06:57:01;;;;;;;6.13;3.35;;;14.70;99.90;;;;;;5094871;28;20572;-58
2023/08/29 06:59:27;;;;;;;6.03;3.25;;;14.90;99.90;;;;;;5093757;28;20103;-58
2023/08/29 07:01:53;;;;;;;8.15;3.75;;;15.00;99.90;;;;;;5094950;28;20048;-58
2023/08/29 07:04:18;;;;;;;7.70;3.10;;;15.00;99.90;;;;;;5094061;28;20082;-60
2023/08/29 07:06:44;;;;;;;6.55;3.35;;;15.10;99.90;;;;;;5095606;28;20044;-58
2023/08/29 07:09:10;;;;;;;7.13;3.05;;;15.30;99.90;;;;;;5094507;28;20072;-58
2023/08/29 07:11:35;;;;;;;6.70;3.40;;;15.20;99.90;;;;;;5094398;28;20099;-59
2023/08/29 07:14:01;;;;;;;6.40;3.38;;;15.20;99.90;;;;;;5094707;28;20044;-58
2023/08/29 07:16:27;;;;;;;6.68;3.50;;;15.30;99.90;;;;;;5094029;28;20419;-57
2023/08/29 07:18:52;;;;;;;6.88;3.50;;;15.40;99.90;;;;;;5094812;28;20060;-58
2023/08/29 07:21:18;;;;;;;6.07;3.05;;;15.30;99.90;;;;;;5093684;28;20506;-58
2023/08/29 07:23:44;;;;;;;6.45;3.33;;;15.40;99.90;;;;;;5095533;28;20403;-58
2023/08/29 07:26:10;;;;;;;7.45;3.58;;;15.40;99.90;;;;;;5092355;28;20056;-57
2023/08/29 07:28:36;;;;;;;7.22;3.28;;;15.50;99.90;;;;;;5093860;28;20407;-57
2023/08/29 07:31:01;;;;;;;5.40;3.20;;;15.40;99.90;;;;;;5094677;28;20056;-56
2023/08/29 07:33:27;;;;;;;6.95;3.33;;;15.50;99.90;;;;;;5093379;28;20075;-57
2023/08/29 07:35:53;;;;;;;6.60;3.20;;;15.60;99.90;;;;;;5094299;28;20036;-57
2023/08/29 07:38:19;;;;;;;8.07;3.40;;;15.60;99.90;;;;;;5094620;28;20382;-56
2023/08/29 07:40:48;;;;;;;7.00;3.40;;;15.50;99.90;;;;;;5098202;28;20562;-56
2023/08/29 07:43:15;;;;;;;5.97;3.50;;;15.60;99.90;;;;;;5100454;28;20064;-56
2023/08/29 07:45:40;;;;;;;5.93;3.50;;;15.60;99.90;;;;;;5101456;28;20048;-58
2023/08/29 07:48:06;;;;;;;6.05;3.33;;;15.60;99.90;;;;;;5101796;28;20049;-57
2023/08/29 07:50:32;;;;;;;7.13;3.45;;;15.70;99.90;;;;;;5100596;28;20044;-57
2023/08/29 07:52:58;;;;;;;7.05;3.60;;;15.70;99.90;;;;;;5102194;28;20032;-58
2023/08/29 07:55:24;;;;;;;6.82;3.40;;;15.80;99.90;;;;;;5108188;28;20032;-56
2023/08/29 07:57:50;;;;;;;5.85;3.15;;;15.80;99.90;;;;;;5122380;28;20408;-57
2023/08/29 08:00:17;;;;;;;6.38;3.20;;;15.90;99.90;;;;;;5121517;28;20072;-57
2023/08/29 08:02:44;;;;;;;6.82;3.30;;;15.90;99.90;;;;;;5121217;28;20063;-57
2023/08/29 08:05:12;;;;;;;5.95;3.08;;;16.00;99.90;;;;;;5121750;28;20043;-57
2023/08/29 08:07:39;;;;;;;5.95;3.00;;;15.90;99.90;;;;;;5120674;28;20038;-57
2023/08/29 08:10:05;;;;;;;6.97;3.63;;;16.10;99.90;;;;;;5122268;28;20044;-57
2023/08/29 08:12:32;;;;;;;7.05;3.20;;;16.20;99.90;;;;;;5120809;28;20082;-58
2023/08/29 08:14:59;;;;;;;6.63;2.90;;;16.20;99.90;;;;;;5122397;28;20044;-57
2023/08/29 08:17:24;;;;;;;6.35;3.15;;;16.30;99.90;;;;;;5120984;28;20056;-57
2023/08/29 08:19:50;;;;;;;8.45;3.03;;;16.30;99.90;;;;;;5121497;28;20134;-57
2023/08/29 08:22:16;;;;;;;5.88;2.70;;;16.40;99.90;;;;;;5120283;28;20089;-57
2023/08/29 08:24:42;;;;;;;8.35;3.25;;;16.40;99.90;;;;;;5120479;28;20048;-57
2023/08/29 08:27:08;;;;;;;5.82;3.15;;;16.40;99.90;;;;;;5121688;28;20100;-57
2023/08/29 08:29:34;;;;;;;8.18;2.95;;;16.60;99.90;;;;;;5120613;28;20047;-57
2023/08/29 08:32:00;;;;;;;7.78;3.83;;;16.70;99.90;;;;;;5121881;28;20043;-58
2023/08/29 08:34:26;;;;;;;6.70;4.00;;;16.60;99.90;;;;;;5119576;28;20063;-57
2023/08/29 08:36:52;;;;;;;6.30;3.72;;;16.70;99.90;;;;;;5120500;28;20526;-57
2023/08/29 08:39:18;;;;;;;5.82;3.40;;;16.80;99.90;;;;;;5120827;27;20032;-57
2023/08/29 08:41:43;;;;;;;6.43;3.88;;;16.90;99.90;;;;;;5120609;28;20039;-57
2023/08/29 08:44:12;;;;;;;6.38;3.10;;;16.90;99.90;;;;;;5121583;28;20069;-57
2023/08/29 08:46:38;;;;;;;5.90;3.35;;;17.00;99.90;;;;;;5120205;28;20493;-58
2023/08/29 08:49:06;;;;;;;5.90;2.72;;;16.90;98.40;;;;;;5121274;28;20046;-57
2023/08/29 08:51:34;;;;;;;5.75;2.67;;;17.10;99.90;;;;;;5118735;28;20055;-57
2023/08/29 08:54:00;;;;;;;5.72;2.72;;;17.30;99.90;;;;;;5118553;28;20095;-57
2023/08/29 08:56:27;;;;;;;5.60;2.38;;;17.30;99.90;;;;;;5106597;28;20055;-57
2023/08/29 08:58:54;;;;;;;4.65;2.20;;;17.30;98.30;;;;;;5111161;28;20070;-58
2023/08/29 09:01:19;;;;;;;5.70;2.22;;;17.20;85.00;;;;;;5121078;28;20095;-58
2023/08/29 09:03:45;;;;;;;4.82;1.98;;;17.20;92.00;;;;;;5119966;28;20042;-58
2023/08/29 09:06:14;;;;;;;4.93;1.60;;;17.20;84.80;;;;;;5119495;28;20055;-57
2023/08/29 09:08:40;;;;;;;3.85;1.42;;;17.40;91.80;;;;;;5119944;28;20127;-57
2023/08/29 09:11:08;;;;;;;3.35;1.50;;;17.50;87.50;;;;;;5109666;28;20128;-57
2023/08/29 09:13:34;;;;;;;3.83;1.60;;;17.50;70.10;;;;;;5100447;28;20044;-57
2023/08/29 09:16:01;;;;;;;4.20;1.95;;;17.60;78.20;;;;;;5098703;28;20055;-56
2023/08/29 09:18:31;;;;;;;5.30;2.33;;;17.60;76.40;;;;;;5100296;28;20055;-57
2023/08/29 09:21:02;;;;;;;6.32;2.08;;;17.80;82.10;;;;;;5097511;28;20104;-57
2023/08/29 09:23:32;;;;;;;4.90;2.10;;;17.70;73.70;;;;;;5099227;28;20083;-57
2023/08/29 09:25:58;;;;;;;5.75;2.22;;;17.60;71.30;;;;;;5099475;28;20044;-58
2023/08/29 09:28:31;;;;;;;5.57;2.17;;;17.60;66.00;;;;;;5099674;28;20051;-58
2023/08/29 09:31:09;;;;;;;8.40;3.42;;;17.50;66.60;;;;;;5099584;28;20052;-57
2023/08/29 09:33:35;;;;;;;4.45;1.92;;;17.60;74.30;;;;;;5098939;28;20040;-57
2023/08/29 09:36:02;;;;;;;4.95;2.28;;;17.80;75.70;;;;;;5100419;28;20096;-57
2023/08/29 09:38:32;;;;;;;5.20;1.88;;;17.60;67.90;;;;;;5098982;28;20101;-57
2023/08/29 09:40:58;;;;;;;5.10;2.30;;;17.60;69.80;;;;;;5098543;28;20086;-57
2023/08/29 09:43:27;;;;;;;5.55;2.60;;;17.70;72.80;;;;;;5099171;28;20052;-58
2023/08/29 09:45:54;;;;;;;4.55;2.08;;;17.60;64.50;;;;;;5099051;28;20044;-57
2023/08/29 09:48:19;;;;;;;5.30;2.00;;;17.60;59.40;;;;;;5099670;28;20123;-57
2023/08/29 09:50:47;;;;;;;4.97;2.10;;;17.70;58.60;;;;;;5098581;28;20032;-57
2023/08/29 09:53:16;;;;;;;6.03;3.00;;;17.90;58.40;;;;;;5099556;28;20047;-57
2023/08/29 09:55:59;;;;;;;7.18;2.90;;;17.80;57.70;;;;;;5098684;28;20040;-57
2023/08/29 09:58:29;;;;;;;6.68;3.10;;;17.70;54.80;;;;;;5099018;28;20036;-57
2023/08/29 10:00:55;;;;;;;5.32;2.60;;;17.80;62.40;;;;;;5098984;28;20248;-57
2023/08/29 10:03:21;;;;;;;6.05;2.78;;;18.00;69.00;;;;;;5098363;28;20040;-58
2023/08/29 10:05:49;;;;;;;6.38;2.95;;;18.00;60.40;;;;;;5098190;28;20458;-57
2023/08/29 10:08:53;;;;;;;8.07;3.83;;;18.10;51.40;;;;;;5098459;28;20255;-57
2023/08/29 10:11:20;;;;;;;5.80;3.28;;;17.90;58.70;;;;;;5080861;28;20084;-57
2023/08/29 10:13:48;;;;;;;7.70;3.30;;;18.10;64.50;;;;;;5099193;28;20640;-58
2023/08/29 10:16:15;;;;;;;5.85;2.85;;;18.20;64.50;;;;;;5097798;28;20431;-57
2023/08/29 10:18:42;;;;;;;7.13;3.38;;;18.40;64.40;;;;;;5098942;28;20040;-57
2023/08/29 10:21:09;;;;;;;7.15;3.10;;;18.40;57.90;;;;;;5098091;28;20040;-58
2023/08/29 10:23:36;;;;;;;5.45;2.92;;;18.50;57.20;;;;;;5099637;28;20044;-60
2023/08/29 10:26:02;;;;;;;6.15;3.58;;;18.60;61.20;;;;;;5098390;28;20048;-57
2023/08/29 10:28:29;;;;;;;6.45;3.95;;;18.60;56.40;;;;;;5098526;28;20050;-55
2023/08/29 10:31:00;;;;;;;6.85;4.80;;;18.40;42.00;;;;;;5099078;28;20057;-57
2023/08/29 10:33:26;;;;;;;8.68;4.85;;;18.40;40.30;;;;;;5098220;28;20040;-58
2023/08/29 10:35:52;;;;;;;7.53;5.05;;;18.30;43.20;;;;;;5099151;28;20128;-57
2023/08/29 10:38:18;;;;;;;7.47;5.32;;;18.40;50.80;;;;;;5097296;28;20036;-57
2023/08/29 10:40:46;;;;;;;8.23;5.15;;;18.50;50.20;;;;;;5099571;28;20155;-56
2023/08/29 10:43:19;;;;;;;7.80;4.53;;;18.60;53.20;;;;;;5098184;28;20036;-57
2023/08/29 10:45:56;;;;;;;7.82;4.57;;;18.50;40.90;;;;;;5098235;28;20519;-58
2023/08/29 10:48:42;;;;;;;7.65;4.38;;;18.70;40.60;;;;;;5098776;28;20097;-57
2023/08/29 10:51:08;;;;;;;6.90;4.53;;;18.50;30.20;;;;;;5097625;28;20127;-58
2023/08/29 10:53:38;;;;;;;7.75;4.30;;;18.70;34.70;;;;;;5099324;28;20036;-57
2023/08/29 10:56:07;;;;;;;7.05;3.20;;;18.80;38.00;;;;;;5110681;28;20046;-57
2023/08/29 10:58:34;;;;;;;6.13;3.45;;;19.00;32.90;;;;;;5118555;28;20028;-57
2023/08/29 11:01:01;;;;;;;7.90;3.13;;;19.20;28.60;;;;;;5119202;28;20065;-58
2023/08/29 11:03:49;;;;;;;98.45;32.53;;;19.40;30.40;;;;;;5117587;28;20057;-57
2023/08/29 11:06:19;;;;;;;52.97;17.92;;;19.50;45.40;;;;;;5118987;28;20035;-58
2023/08/29 11:08:45;;;;;;;17.08;6.63;;;19.60;40.20;;;;;;5117838;28;20052;-57
2023/08/29 11:11:22;;;;;;;9.52;3.92;;;19.30;16.50;;;;;;5118925;28;20043;-57
2023/08/29 11:13:55;;;;;;;14.90;6.60;;;19.20;8.00;;;;;;5118702;28;20054;-57
2023/08/29 11:16:21;;;;;;;8.02;3.72;;;19.10;13.70;;;;;;5117800;28;20090;-57
2023/08/29 11:18:47;;;;;;;7.28;3.10;;;19.30;20.70;;;;;;5121583;28;20384;-57
2023/08/29 11:21:16;;;;;;;5.93;2.80;;;19.40;23.90;;;;;;5121736;28;20044;-57
2023/08/29 11:23:43;;;;;;;13.52;4.75;;;19.50;16.50;;;;;;5123167;27;20047;-57
2023/08/29 11:26:09;;;;;;;7.57;3.50;;;19.30;18.80;;;;;;5122405;28;20548;-57
2023/08/29 11:28:45;;;;;;;9.32;3.25;;;19.00;7.60;;;;;;5122433;28;20028;-57
2023/08/29 11:31:12;;;;;;;5.43;2.60;;;19.00;13.50;;;;;;5122929;28;20043;-57
2023/08/29 11:33:38;;;;;;;5.72;2.75;;;19.10;16.90;;;;;;5120810;28;20044;-57
2023/08/29 11:36:06;;;;;;;10.23;3.67;;;19.00;20.40;;;;;;5122730;28;20043;-58
2023/08/29 11:38:32;;;;;;;5.55;2.47;;;19.00;20.20;;;;;;5121217;28;20571;-57
2023/08/29 11:41:00;;;;;;;7.15;2.75;;;19.00;21.50;;;;;;5122758;28;20052;-57
2023/08/29 11:43:28;;;;;;;5.55;2.53;;;19.20;24.50;;;;;;5122118;28;20047;-57
2023/08/29 11:45:57;;;;;;;5.53;2.70;;;19.10;20.20;;;;;;5120693;28;20071;-57
2023/08/29 11:48:30;;;;;;;6.03;2.72;;;19.20;20.20;;;;;;5122207;28;20049;-57
2023/08/29 11:51:07;;;;;;;6.70;3.30;;;19.20;18.90;;;;;;5121458;28;20047;-57
2023/08/29 11:53:35;;;;;;;6.60;3.60;;;19.10;13.60;;;;;;5122588;28;20046;-57
2023/08/29 11:56:03;;;;;;;5.95;3.30;;;19.00;22.10;;;;;;5108582;28;20051;-57
2023/08/29 11:58:31;;;;;;;6.90;4.10;;;19.00;20.60;;;;;;5099450;28;20044;-57
2023/08/29 12:01:01;;;;;;;5.63;3.05;;;19.20;21.90;;;;;;5101940;28;20040;-57
2023/08/29 12:03:27;;;;;;;6.07;2.55;;;19.30;26.60;;;;;;5100781;28;20036;-57
2023/08/29 12:05:59;;;;;;;5.97;2.97;;;19.40;24.30;;;;;;5100623;28;20047;-58
2023/08/29 12:08:40;;;;;;;5.65;2.40;;;19.40;19.50;;;;;;5099444;28;20063;-56
2023/08/29 12:11:07;;;;;;;5.57;2.35;;;19.30;12.90;;;;;;5101645;28;20518;-57
2023/08/29 12:13:37;;;;;;;5.35;2.10;;;19.50;18.50;;;;;;5101435;28;20587;-56
2023/08/29 12:16:04;;;;;;;5.45;2.60;;;19.50;10.60;;;;;;5100358;28;20067;-56
2023/08/29 12:18:32;;;;;;;6.40;3.17;;;19.50;10.00;;;;;;5100474;28;20518;-56
2023/08/29 12:21:18;;;;;;;7.35;2.85;;;19.20;4.20;;;;;;5100206;28;20111;-56
2023/08/29 12:23:45;;;;;;;5.90;3.20;;;19.30;9.70;;;;;;5101200;28;20052;-56
2023/08/29 12:26:12;;;;;;;5.47;3.00;;;19.30;13.80;;;;;;5100540;28;20052;-55
2023/08/29 12:28:38;;;;;;;7.15;3.00;;;19.50;15.40;;;;;;5097907;28;20040;-56
2023/08/29 12:31:04;;;;;;;6.22;3.28;;;19.50;15.70;;;;;;5100908;28;20434;-55
2023/08/29 12:33:30;;;;;;;7.38;3.92;;;19.40;10.60;;;;;;5100156;28;20486;-56
2023/08/29 12:35:58;;;;;;;6.60;2.92;;;19.70;14.50;;;;;;5101317;28;20044;-55
2023/08/29 12:38:26;;;;;;;6.05;2.78;;;19.90;21.20;;;;;;5098804;28;20055;-56
2023/08/29 12:40:52;;;;;;;6.55;2.83;;;20.10;14.70;;;;;;5101475;28;20044;-55
2023/08/29 12:43:19;;;;;;;6.47;3.03;;;20.00;11.90;;;;;;5100481;28;20039;-55
2023/08/29 12:45:45;;;;;;;6.00;3.03;;;20.10;7.00;;;;;;5100223;28;20099;-55